createdAt,value
2023-05-11T00:01:38.083Z,11.00
2023-05-11T00:04:06.036Z,9.60
2023-05-11T00:06:33.456Z,9.60
2023-05-11T00:09:00.834Z,11.10
2023-05-11T00:11:27.994Z,9.70
2023-05-11T00:13:55.052Z,10.00
2023-05-11T00:16:22.433Z,9.80
2023-05-11T00:18:49.824Z,8.70
2023-05-11T00:21:16.853Z,9.50
2023-05-11T00:23:44.082Z,10.40
2023-05-11T00:26:11.433Z,11.40
2023-05-11T00:28:38.789Z,11.10
2023-05-11T00:31:06.168Z,11.70
2023-05-11T00:33:33.251Z,10.70
2023-05-11T00:36:00.270Z,11.90
2023-05-11T00:38:27.744Z,14.00
2023-05-11T00:40:55.540Z,13.90
2023-05-11T00:43:22.945Z,15.60
2023-05-11T00:45:50.159Z,18.30
2023-05-11T00:48:17.338Z,16.90
2023-05-11T00:50:44.901Z,17.60
2023-05-11T00:53:12.087Z,18.90
2023-05-11T00:55:39.242Z,20.40
2023-05-11T00:58:06.902Z,21.60
2023-05-11T01:00:34.256Z,23.30
2023-05-11T01:03:03.377Z,22.10
2023-05-11T01:05:46.465Z,19.60
2023-05-11T01:08:19.232Z,19.50
2023-05-11T01:10:49.900Z,20.10
2023-05-11T01:13:23.175Z,17.90
2023-05-11T01:15:54.395Z,19.20
2023-05-11T01:18:51.373Z,18.90
2023-05-11T01:21:18.497Z,18.90
2023-05-11T01:23:48.907Z,15.60
2023-05-11T01:26:22.203Z,13.70
2023-05-11T01:29:03.564Z,13.40
2023-05-11T01:31:31.781Z,16.90
2023-05-11T01:34:04.395Z,15.80
2023-05-11T01:36:35.665Z,15.50
2023-05-11T01:39:05.761Z,16.50
2023-05-11T01:41:33.221Z,15.60
2023-05-11T01:44:03.450Z,14.30
2023-05-11T01:46:33.012Z,15.90
2023-05-11T01:49:01.172Z,15.90
2023-05-11T01:51:30.848Z,16.40
2023-05-11T01:53:57.954Z,19.00
2023-05-11T01:56:24.959Z,17.90
2023-05-11T01:58:52.216Z,18.70
2023-05-11T02:01:19.855Z,17.30
2023-05-11T02:03:47.223Z,18.20
2023-05-11T02:06:16.414Z,19.00
2023-05-11T02:08:43.535Z,18.90
2023-05-11T02:11:10.702Z,20.60
2023-05-11T02:13:39.695Z,22.30
2023-05-11T02:16:07.377Z,21.50
2023-05-11T02:18:34.426Z,21.00
2023-05-11T02:21:01.613Z,23.60
2023-05-11T02:23:29.020Z,28.10
2023-05-11T02:25:56.225Z,27.80
2023-05-11T02:28:23.648Z,28.00
2023-05-11T02:30:54.250Z,21.10
2023-05-11T02:33:25.926Z,31.80
2023-05-11T02:35:54.304Z,33.60
2023-05-11T02:38:21.752Z,35.60
2023-05-11T02:40:51.062Z,35.70
2023-05-11T02:43:23.394Z,40.10
2023-05-11T02:45:54.471Z,38.40
2023-05-11T02:48:27.960Z,40.10
2023-05-11T02:50:56.570Z,38.40
2023-05-11T02:53:27.530Z,39.70
2023-05-11T02:55:57.622Z,40.10
2023-05-11T02:58:25.002Z,41.50
2023-05-11T03:00:59.546Z,43.40
2023-05-11T03:03:27.659Z,45.30
2023-05-11T03:05:54.827Z,43.10
2023-05-11T03:08:22.176Z,39.40
2023-05-11T03:10:49.262Z,38.80
2023-05-11T03:13:17.013Z,39.90
2023-05-11T03:15:44.066Z,43.20
2023-05-11T03:18:11.724Z,41.40
2023-05-11T03:20:40.208Z,43.10
2023-05-11T03:23:07.666Z,40.20
2023-05-11T03:25:34.915Z,38.10
2023-05-11T03:28:02.036Z,39.00
2023-05-11T03:30:30.216Z,40.00
2023-05-11T03:32:57.514Z,40.20
2023-05-11T03:35:26.192Z,39.80
2023-05-11T03:37:53.382Z,39.90
2023-05-11T03:40:21.029Z,39.20
2023-05-11T03:42:53.389Z,32.80
2023-05-11T03:45:21.405Z,34.20
2023-05-11T03:47:49.231Z,32.50
2023-05-11T03:50:16.359Z,33.00
2023-05-11T03:52:43.595Z,31.80
2023-05-11T03:55:11.016Z,33.20
2023-05-11T03:57:38.102Z,30.60
2023-05-11T04:00:08.376Z,28.70
2023-05-11T04:02:42.793Z,27.00
2023-05-11T04:05:12.563Z,25.20
2023-05-11T04:07:41.401Z,25.40
2023-05-11T04:10:09.618Z,23.90
2023-05-11T04:12:36.871Z,26.90
2023-05-11T04:15:04.704Z,23.70
2023-05-11T04:17:31.879Z,25.00
2023-05-11T04:19:58.842Z,23.00
2023-05-11T04:22:25.863Z,17.80
2023-05-11T04:24:53.039Z,17.80
2023-05-11T04:28:46.966Z,16.20
2023-05-11T04:31:57.908Z,13.30
2023-05-11T04:34:26.577Z,14.80
2023-05-11T04:36:54.499Z,8.40
2023-05-11T04:39:21.976Z,13.70
2023-05-11T04:41:49.019Z,10.70
2023-05-11T04:44:16.150Z,6.50
2023-05-11T04:46:43.265Z,3.70
2023-05-11T04:49:10.287Z,3.10
2023-05-11T04:51:39.587Z,3.50
2023-05-11T04:54:07.058Z,3.20
2023-05-11T04:56:34.246Z,3.80
2023-05-11T04:59:02.463Z,3.90
2023-05-11T05:01:31.014Z,3.40
2023-05-11T05:03:58.252Z,3.90
2023-05-11T05:06:25.624Z,3.40
2023-05-11T05:08:53.482Z,3.60
2023-05-11T05:11:21.761Z,3.70
2023-05-11T05:13:49.115Z,3.10
2023-05-11T05:16:16.199Z,3.50
2023-05-11T05:18:43.356Z,3.60
2023-05-11T05:21:10.941Z,3.60
2023-05-11T05:23:37.955Z,3.60
2023-05-11T05:26:05.176Z,3.40
2023-05-11T05:28:36.019Z,3.60
2023-05-11T05:31:04.043Z,3.80
2023-05-11T05:33:31.450Z,3.70
2023-05-11T05:35:58.599Z,3.40
2023-05-11T05:38:26.117Z,3.80
2023-05-11T05:40:54.014Z,2.30
2023-05-11T05:43:21.072Z,2.70
2023-05-11T05:45:48.358Z,3.10
2023-05-11T05:48:15.988Z,3.20
2023-05-11T05:50:43.545Z,3.20
2023-05-11T05:53:10.697Z,3.50
2023-05-11T05:55:38.901Z,3.30
2023-05-11T05:58:06.119Z,3.20
2023-05-11T06:00:33.202Z,3.60
2023-05-11T06:03:03.341Z,2.90
2023-05-11T06:05:30.667Z,3.70
2023-05-11T06:08:09.704Z,3.50
2023-05-11T06:10:38.896Z,3.00
2023-05-11T06:13:07.818Z,3.00
2023-05-11T06:15:35.023Z,3.20
2023-05-11T06:18:07.950Z,2.90
2023-05-11T06:20:36.304Z,3.10
2023-05-11T06:23:08.191Z,3.00
2023-05-11T06:25:37.960Z,3.40
2023-05-11T06:28:05.617Z,2.90
2023-05-11T06:30:33.124Z,2.70
2023-05-11T06:33:00.550Z,3.20
2023-05-11T06:35:30.753Z,3.30
2023-05-11T06:37:58.128Z,2.90
2023-05-11T06:40:26.196Z,3.40
2023-05-11T06:42:53.229Z,3.10
2023-05-11T06:45:20.402Z,2.70
2023-05-11T06:47:47.750Z,2.90
2023-05-11T06:50:15.089Z,3.00
2023-05-11T06:52:42.256Z,3.00
2023-05-11T06:55:14.358Z,3.00
2023-05-11T06:57:41.670Z,3.20
2023-05-11T07:00:09.467Z,2.70
2023-05-11T07:02:36.729Z,2.60
2023-05-11T07:05:04.352Z,2.70
2023-05-11T07:07:31.605Z,2.70
2023-05-11T07:09:58.746Z,2.60
2023-05-11T07:12:25.891Z,2.70
2023-05-11T07:14:53.046Z,2.40
2023-05-11T07:17:20.133Z,2.40
2023-05-11T07:19:47.574Z,2.60
2023-05-11T07:22:17.669Z,2.40
2023-05-11T07:24:44.921Z,2.30
2023-05-11T07:27:12.276Z,2.50
2023-05-11T07:29:39.322Z,2.50
2023-05-11T07:32:06.482Z,2.70
2023-05-11T07:34:33.647Z,2.10
2023-05-11T07:37:01.081Z,2.40
2023-05-11T07:39:28.236Z,2.60
2023-05-11T07:41:58.154Z,3.10
2023-05-11T07:44:28.585Z,2.80
2023-05-11T07:46:56.034Z,2.60
2023-05-11T07:49:31.376Z,2.40
2023-05-11T07:52:10.023Z,2.70
2023-05-11T07:54:37.040Z,2.60
2023-05-11T07:57:04.397Z,2.90
2023-05-11T07:59:31.704Z,2.50
2023-05-11T08:01:58.924Z,2.70
2023-05-11T08:04:27.819Z,2.60
2023-05-11T08:07:00.607Z,2.80
2023-05-11T08:09:27.854Z,2.90
2023-05-11T08:11:56.792Z,3.10
2023-05-11T08:14:25.237Z,2.70
2023-05-11T08:16:53.322Z,2.40
2023-05-11T08:19:21.732Z,2.40
2023-05-11T08:21:49.248Z,2.30
2023-05-11T08:24:16.503Z,2.50
2023-05-11T08:26:44.296Z,1.90
2023-05-11T08:29:12.722Z,1.90
2023-05-11T08:31:40.516Z,2.40
2023-05-11T08:34:28.218Z,2.30
2023-05-11T08:36:56.227Z,1.90
2023-05-11T08:39:39.008Z,1.90
2023-05-11T08:42:10.525Z,2.20
2023-05-11T08:44:38.945Z,2.20
2023-05-11T08:47:22.090Z,2.00
2023-05-11T08:49:52.720Z,2.00
2023-05-11T08:52:19.847Z,1.70
2023-05-11T08:54:47.314Z,1.80
2023-05-11T08:57:14.965Z,1.90
2023-05-11T08:59:45.285Z,1.80
2023-05-11T09:02:16.736Z,1.70
2023-05-11T09:04:46.865Z,3.00
2023-05-11T09:07:17.920Z,1.90
2023-05-11T09:09:46.689Z,1.90
2023-05-11T09:12:14.453Z,2.00
2023-05-11T09:14:41.760Z,1.90
2023-05-11T09:17:09.339Z,1.90
2023-05-11T09:19:36.683Z,1.70
2023-05-11T09:22:05.638Z,1.90
2023-05-11T09:24:32.855Z,2.10
2023-05-11T09:27:09.944Z,1.60
2023-05-11T09:29:37.159Z,1.80
2023-05-11T09:32:04.520Z,1.90
2023-05-11T09:34:31.568Z,1.90
2023-05-11T09:37:00.969Z,1.60
2023-05-11T09:39:42.039Z,1.50
2023-05-11T09:42:22.775Z,1.70
2023-05-11T09:44:49.914Z,1.80
2023-05-11T09:47:18.408Z,1.60
2023-05-11T09:49:46.998Z,1.40
2023-05-11T09:52:15.829Z,1.80
2023-05-11T09:54:46.699Z,1.50
2023-05-11T09:57:27.728Z,1.50
2023-05-11T13:49:05.653Z,1.90
2023-05-11T13:51:33.418Z,1.90
2023-05-11T13:54:02.630Z,1.80
2023-05-11T13:56:29.869Z,2.00
2023-05-11T13:58:59.768Z,2.20
2023-05-11T14:01:27.723Z,2.10
2023-05-11T14:03:55.694Z,1.90
2023-05-11T14:06:24.037Z,2.00
2023-05-11T14:08:51.801Z,2.00
2023-05-11T14:11:18.873Z,3.10
2023-05-11T14:13:45.990Z,1.80
2023-05-11T14:16:13.258Z,1.80
2023-05-11T14:18:40.990Z,1.90
2023-05-11T14:21:08.534Z,1.80
2023-05-11T14:23:37.565Z,1.90
2023-05-11T14:26:06.884Z,1.90
2023-05-11T14:28:34.187Z,1.80
2023-05-11T14:31:01.720Z,1.80
2023-05-11T14:33:28.846Z,1.90
2023-05-11T14:35:55.922Z,2.00
2023-05-11T14:38:23.113Z,2.80
2023-05-11T14:40:51.727Z,2.20
2023-05-11T14:43:19.686Z,1.80
2023-05-11T14:45:46.688Z,2.20
2023-05-11T14:48:13.791Z,1.80
2023-05-11T14:50:43.189Z,2.20
2023-05-11T14:53:10.493Z,2.20
2023-05-11T14:55:38.164Z,2.30
2023-05-11T14:58:07.935Z,2.10
2023-05-11T15:00:40.966Z,1.90
2023-05-11T15:03:08.669Z,1.80
2023-05-11T15:05:36.330Z,1.90
2023-05-11T15:08:03.387Z,2.20
2023-05-11T15:10:30.803Z,2.10
2023-05-11T15:12:57.827Z,2.40
2023-05-11T15:15:24.944Z,2.30
2023-05-11T15:17:52.034Z,2.10
2023-05-11T15:20:19.646Z,2.10
2023-05-11T15:22:46.755Z,1.90
2023-05-11T15:25:13.796Z,2.40
2023-05-11T15:27:41.860Z,2.00
2023-05-11T15:30:09.897Z,1.90
2023-05-11T15:32:37.073Z,1.90
2023-05-11T15:35:04.935Z,2.80
2023-05-11T15:37:32.094Z,2.10
2023-05-11T15:39:59.240Z,1.60
2023-05-11T15:42:26.700Z,1.70
2023-05-11T15:44:53.950Z,2.10
2023-05-11T15:47:21.039Z,1.80
2023-05-11T15:49:48.149Z,1.70
2023-05-11T15:52:15.297Z,2.20
2023-05-11T15:54:42.340Z,1.90
2023-05-11T15:57:09.654Z,1.70
2023-05-11T15:59:38.520Z,1.80
2023-05-11T16:02:06.535Z,1.80
2023-05-11T16:04:33.635Z,2.10
2023-05-11T16:07:00.638Z,1.90
2023-05-11T16:09:27.626Z,1.80
2023-05-11T16:11:56.601Z,2.20
2023-05-11T16:14:23.872Z,1.90
2023-05-11T16:16:51.985Z,1.90
2023-05-11T16:19:19.314Z,1.60
2023-05-11T16:21:46.449Z,1.80
2023-05-11T16:24:14.210Z,2.10
2023-05-11T16:26:41.269Z,1.90
2023-05-11T16:29:09.138Z,1.80
2023-05-11T16:31:36.323Z,1.80
2023-05-11T16:34:03.636Z,1.90
2023-05-11T16:36:30.791Z,1.60
2023-05-11T16:38:57.938Z,1.80
2023-05-11T16:41:28.269Z,1.80
2023-05-11T16:43:56.129Z,1.80
2023-05-11T16:47:39.001Z,2.70
2023-05-11T16:50:07.037Z,1.70
2023-05-11T16:52:34.055Z,2.10
2023-05-11T16:55:01.128Z,2.50
2023-05-11T16:57:28.272Z,2.10
2023-05-11T16:59:55.223Z,1.90
2023-05-11T17:02:22.501Z,2.20
2023-05-11T17:04:49.729Z,2.20
2023-05-11T17:07:16.992Z,2.20
2023-05-11T17:09:45.561Z,2.60
2023-05-11T17:12:12.612Z,3.40
2023-05-11T17:14:39.689Z,2.40
2023-05-11T17:17:08.388Z,2.50
2023-05-11T17:19:35.604Z,2.00
2023-05-11T17:22:02.573Z,1.70
2023-05-11T17:24:29.566Z,1.80
2023-05-11T17:26:56.878Z,1.60
2023-05-11T17:29:23.924Z,1.90
2023-05-11T17:31:52.217Z,2.30
2023-05-11T17:34:21.478Z,2.70
2023-05-11T17:36:50.194Z,7.40
2023-05-11T17:39:20.306Z,12.00
2023-05-11T17:41:47.765Z,12.60
2023-05-11T17:44:14.816Z,11.80
2023-05-11T17:46:42.097Z,10.60
2023-05-11T17:49:10.428Z,9.80
2023-05-11T17:51:37.616Z,10.20
2023-05-11T17:54:04.630Z,9.70
2023-05-11T17:56:32.360Z,8.70
2023-05-11T17:58:59.716Z,7.70
2023-05-11T18:01:27.863Z,7.50
2023-05-11T18:03:55.125Z,9.40
2023-05-11T18:06:22.371Z,8.20
2023-05-11T18:08:49.680Z,11.30
2023-05-11T18:11:18.235Z,9.50
2023-05-11T18:13:46.264Z,8.20
2023-05-11T18:16:13.480Z,6.60
2023-05-11T18:18:42.708Z,6.60
2023-05-11T18:21:11.047Z,6.60
2023-05-11T18:23:38.533Z,7.60
2023-05-11T18:26:06.494Z,7.50
2023-05-11T18:28:33.557Z,8.00
2023-05-11T18:31:01.542Z,8.60
2023-05-11T18:33:28.771Z,11.40
2023-05-11T18:35:55.915Z,10.70
2023-05-11T18:38:23.177Z,8.10
2023-05-11T18:40:51.475Z,7.20
2023-05-11T18:43:18.517Z,7.00
2023-05-11T18:45:46.522Z,6.70
2023-05-11T18:48:15.764Z,6.60
2023-05-11T18:50:43.118Z,6.50
2023-05-11T18:53:10.166Z,7.00
2023-05-11T18:55:51.926Z,6.50
2023-05-11T18:58:20.935Z,5.90
2023-05-11T19:00:48.961Z,5.70
2023-05-11T19:03:17.604Z,6.70
2023-05-11T19:05:45.028Z,8.20
2023-05-11T19:08:12.013Z,7.30
2023-05-11T19:10:40.610Z,7.20
2023-05-11T19:13:07.951Z,6.40
2023-05-11T19:15:35.510Z,6.00
2023-05-11T19:18:03.106Z,5.90
2023-05-11T19:20:30.212Z,6.50
2023-05-11T19:22:57.383Z,11.60
2023-05-11T19:25:24.420Z,13.90
2023-05-11T19:27:54.850Z,12.60
2023-05-11T19:30:22.129Z,11.80
2023-05-11T19:32:49.604Z,11.80
2023-05-11T19:35:18.037Z,10.10
2023-05-11T19:37:48.389Z,10.10
2023-05-11T19:42:46.668Z,8.40
2023-05-11T19:45:14.744Z,7.20
2023-05-11T19:47:41.891Z,6.80
2023-05-11T19:50:09.554Z,5.10
2023-05-11T19:52:37.015Z,4.80
2023-05-11T19:55:04.835Z,6.00
2023-05-11T19:57:37.445Z,7.10
2023-05-11T20:00:06.305Z,6.70
2023-05-11T20:02:33.661Z,5.10
2023-05-11T20:05:00.834Z,5.30
2023-05-11T20:07:28.026Z,4.80
2023-05-11T20:09:55.297Z,4.30
2023-05-11T20:12:22.557Z,4.20
2023-05-11T20:14:50.034Z,3.90
2023-05-11T20:17:16.981Z,4.10
2023-05-11T20:19:44.135Z,4.40
2023-05-11T20:22:11.484Z,4.00
2023-05-11T20:24:39.010Z,3.90
2023-05-11T20:27:09.718Z,3.50
2023-05-11T20:29:36.903Z,3.40
2023-05-11T20:32:04.368Z,3.90
2023-05-11T20:34:31.908Z,4.70
2023-05-11T20:36:59.050Z,6.50
2023-05-11T20:39:26.311Z,7.70
2023-05-11T20:41:53.317Z,8.50
2023-05-11T20:44:20.560Z,10.00
2023-05-11T20:46:47.747Z,8.50
2023-05-11T20:49:22.257Z,7.30
2023-05-11T20:51:55.228Z,7.70
2023-05-11T20:54:23.093Z,6.70
2023-05-11T20:56:50.509Z,6.80
2023-05-11T21:01:47.769Z,6.60
2023-05-11T21:04:14.801Z,6.70
2023-05-11T21:06:41.859Z,6.70
2023-05-11T21:09:09.422Z,6.10
2023-05-11T21:11:36.687Z,7.70
2023-05-11T21:14:03.822Z,7.00
2023-05-11T21:16:30.846Z,7.40
2023-05-11T21:18:58.020Z,8.40
2023-05-11T21:21:25.243Z,11.10
2023-05-11T21:23:52.190Z,12.90
2023-05-11T21:26:19.336Z,10.30
2023-05-11T21:28:46.356Z,11.50
2023-05-11T21:31:13.381Z,10.70
2023-05-11T21:33:40.438Z,9.20
2023-05-11T21:36:08.830Z,8.20
2023-05-11T21:38:35.965Z,9.40
2023-05-11T21:41:03.049Z,9.10
2023-05-11T21:43:30.664Z,8.60
2023-05-11T21:45:57.746Z,7.50
2023-05-11T21:48:24.809Z,7.80
2023-05-11T21:50:53.849Z,7.60
2023-05-11T21:53:21.570Z,7.20
2023-05-11T21:55:49.704Z,7.00
2023-05-11T21:58:16.956Z,8.20
2023-05-11T22:00:46.970Z,7.70
2023-05-11T22:03:14.166Z,7.00
2023-05-11T22:05:41.374Z,7.60
2023-05-11T22:08:14.973Z,7.90
2023-05-11T22:10:43.362Z,8.10
2023-05-11T22:13:10.720Z,7.30
2023-05-11T22:15:37.830Z,8.40
2023-05-11T22:18:05.274Z,8.40
2023-05-11T22:20:32.455Z,7.90
2023-05-11T22:22:59.716Z,7.80
2023-05-11T22:25:26.842Z,7.70
2023-05-11T22:27:53.983Z,7.40
2023-05-11T22:30:21.517Z,7.60
2023-05-11T22:32:49.065Z,6.90
2023-05-11T22:35:16.688Z,7.00
2023-05-11T22:37:43.759Z,7.40
2023-05-11T22:40:11.431Z,7.20
2023-05-11T22:42:38.459Z,7.20
2023-05-11T22:45:06.316Z,7.40
2023-05-11T22:47:33.450Z,6.70
2023-05-11T22:50:00.743Z,7.30
2023-05-11T22:52:27.760Z,7.10
2023-05-11T22:54:55.316Z,7.20
2023-05-11T22:57:24.231Z,7.30
2023-05-11T22:59:51.252Z,6.90
2023-05-11T23:02:18.255Z,7.60
2023-05-11T23:04:50.503Z,7.20
2023-05-11T23:07:18.118Z,7.40
2023-05-11T23:09:45.298Z,7.30
2023-05-11T23:12:13.035Z,7.60
2023-05-11T23:14:39.939Z,8.00
2023-05-11T23:17:06.964Z,7.90
2023-05-11T23:19:34.040Z,8.10
2023-05-11T23:22:01.535Z,7.40
2023-05-11T23:24:29.107Z,7.90
2023-05-11T23:26:56.145Z,7.50
2023-05-11T23:29:23.215Z,7.40
2023-05-11T23:31:51.223Z,8.20
2023-05-11T23:34:18.709Z,7.80
2023-05-11T23:36:46.017Z,7.60
2023-05-11T23:39:13.179Z,8.00
2023-05-11T23:41:40.312Z,7.60
2023-05-11T23:44:07.490Z,7.20
2023-05-11T23:46:34.650Z,6.80
2023-05-11T23:49:02.149Z,7.90
2023-05-11T23:51:29.089Z,7.20
2023-05-11T23:53:56.132Z,6.90
2023-05-11T23:56:23.141Z,6.70
2023-05-11T23:58:50.868Z,7.50
